Clarkton, North Carolina
Current Conditions -  °F | °C
As of 1:35 PM on Sunday 21 Dec 2014 (Local Time) from KEYF Reporting Station
Broken Clouds Broken Clouds  
Wind Chill:   Ceiling: 10000
Heat Index: 10°   Visibility: 10mi
Dew Point:   Wind: 5mph
Humidity: 63%   Direction: 30°NNE
Pressure: 30.22"   Gusts: NA
Location:  34.49°N, 78.66°W
Report Text: KEYF 211835Z AUTO 03004KT 10SM BKN100 10/03 A3022 RMK AO2 T00990031
Loading
Personal Weather Stations






























Interactive Weather Map New forecast layout! Learn more

10-Day Weather Forecast

Advertisements
Track Severe Weather on mobile